ENSG/SOG METAR and TAF weather

Enter ICAO airport designator
Station Type Date Time Source
ENSG METAR 2018/01/24 06:50 UTC NOAA

ENSG 240650Z 25009KT 9999 VCSH FEW/// SCT015 01/01 Q0990 RMK WIND 3806FT 20020KT


Station Type Date Time Source
ENSG Decoded METAR 2018/01/24 06:50 UTC NOAA

Sogndal / Haukasen, Norway (ENSG) 61-09N 007-08E 497M
Jan 24, 2018 - 01:50 AM EST / 2018.01.24 0650 UTC
Wind: from the WSW (250 degrees) at 10 MPH (9 KT):0
Visibility: greater than 7 mile(s):0
Sky conditions: partly cloudy
Weather: showers in the vicinity
Temperature: 33 F (1 C)
Windchill: 24 F (-4 C):1
Dew Point: 33 F (1 C)
Relative Humidity: 100%
Pressure (altimeter): 29.23 in. Hg (0990 hPa)
ob: ENSG 240650Z 25009KT 9999 VCSH FEW/// SCT015 01/01 Q0990 RMK WIND 3806FT 20020KT
cycle: 7

Station Type Date Time Source
ENSG TAF UTC NOAA

Error!


Example: see airport list